Date,TemperatureHighF,TemperatureAvgF,TemperatureLowF,DewpointHighF,DewpointAvgF,DewpointLowF,HumidityHigh,HumidityAvg,HumidityLow,PressureMaxIn,PressureMinIn,WindSpeedMaxMPH,WindSpeedAvgMPH,GustSpeedMaxMPH,PrecipitationSumIn
2013-4-1,61.5,53.3,48.4,49.8,47.6,44.9,94,82,65,30.12,29.93,14,2,22,0.01
2013-4-2,55.7,52.2,49.5,48.9,46.8,45.2,92,82,75,30.16,30.11,13,3,17,0.01
2013-4-3,60.7,52.9,46.6,49.5,46.2,44.1,95,80,56,30.15,29.91,6,0,12,0.00
2013-4-4,57.3,53.0,50.4,54.1,49.9,46.6,98,90,82,29.91,29.60,16,2,24,0.15
2013-4-5,56.6,52.8,49.2,52.0,49.4,46.5,96,88,75,29.82,29.68,29,9,33,0.07
2013-4-6,51.6,48.4,45.9,48.2,45.0,42.5,96,88,77,29.89,29.66,24,9,31,0.05
2013-4-7,46.0,43.8,40.9,43.8,41.8,38.8,95,93,90,29.83,29.45,11,2,17,0.03
2013-4-8,53.1,47.5,43.1,47.6,43.9,40.7,96,88,73,30.21,29.84,8,2,10,0.01
2013-4-9,53.6,49.5,43.5,46.0,43.0,38.3,94,79,61,30.30,30.14,13,2,16,0.00
2013-4-10,57.5,52.4,48.7,50.6,46.6,43.2,95,81,70,30.22,29.90,21,7,28,0.02
2013-4-11,50.9,47.9,44.5,43.7,41.0,37.5,95,78,61,30.27,30.14,13,4,17,0.02
2013-4-12,46.7,44.5,41.7,44.7,40.4,37.3,96,86,72,30.14,29.62,19,6,28,0.07
2013-4-13,47.9,43.2,38.8,43.3,39.7,35.6,96,88,77,29.95,29.71,21,6,27,0.30
2013-4-14,52.6,45.2,40.3,41.2,38.8,33.0,100,80,48,29.96,29.86,14,2,21,0.01
2013-4-15,54.2,46.2,41.2,41.8,40.3,36.6,94,81,52,30.13,29.90,22,2,27,0.00
2013-4-16,54.5,45.5,38.8,42.9,39.8,34.3,98,82,48,30.34,30.13,24,2,26,0.02
2013-4-17,58.1,48.9,40.0,44.0,39.9,35.7,94,73,44,30.40,30.34,11,2,16,0.00
2013-4-18,51.0,47.1,45.0,47.3,42.1,39.5,91,83,75,30.40,30.29,12,5,16,0.03
2013-4-19,53.8,51.5,48.5,52.0,50.0,47.6,98,95,88,30.16,30.01,11,3,17,0.15
2013-4-20,55.0,49.6,47.2,49.9,46.6,44.7,97,90,74,30.24,30.16,15,4,19,0.05
2013-4-21,53.4,47.4,44.1,46.1,42.5,39.2,96,84,64,30.33,30.19,11,2,16,0.01
2013-4-22,59.0,48.9,39.2,42.2,36.7,25.3,97,67,28,30.48,30.33,12,2,17,0.00
2013-4-23,61.1,49.1,38.5,42.8,37.5,27.3,94,68,28,30.39,30.20,15,2,19,0.00
2013-4-24,68.0,54.2,42.8,45.6,40.4,32.4,93,64,29,30.28,30.02,14,1,17,0.00
2013-4-25,69.5,56.5,44.9,48.6,42.6,37.6,88,63,35,30.08,30.00,7,1,10,0.00
2013-4-26,65.4,53.6,48.0,51.3,48.2,46.3,95,83,58,30.20,30.09,13,2,13,0.00
2013-4-27,56.2,54.3,52.3,49.2,46.6,41.5,86,76,61,30.18,30.11,19,10,27,0.00
2013-4-28,57.7,51.2,47.6,48.6,45.7,41.5,94,83,59,30.18,29.91,22,6,29,0.01
2013-4-29,53.5,48.1,43.3,48.2,39.8,31.0,96,75,43,30.11,29.86,14,5,21,0.01
2013-4-30,53.0,45.7,38.1,39.1,35.5,30.2,90,69,43,30.39,30.11,11,3,20,0.01